sensor_id;sensor_type;location;lat;lon;timestamp;P1;durP1;ratioP1;P2;durP2;ratioP2
6053;SDS011;3055;50.886;14.814;2023-09-19T00:00:16;12.00;;;10.80;;
6053;SDS011;3055;50.886;14.814;2023-09-19T00:02:45;12.53;;;11.13;;
6053;SDS011;3055;50.886;14.814;2023-09-19T00:05:13;12.57;;;11.37;;
6053;SDS011;3055;50.886;14.814;2023-09-19T00:07:40;13.10;;;11.80;;
6053;SDS011;3055;50.886;14.814;2023-09-19T00:10:07;12.73;;;11.53;;
6053;SDS011;3055;50.886;14.814;2023-09-19T00:12:36;13.17;;;11.90;;
6053;SDS011;3055;50.886;14.814;2023-09-19T00:15:05;11.80;;;10.57;;
6053;SDS011;3055;50.886;14.814;2023-09-19T00:17:34;13.57;;;11.50;;
6053;SDS011;3055;50.886;14.814;2023-09-19T00:20:02;12.90;;;11.70;;
6053;SDS011;3055;50.886;14.814;2023-09-19T00:22:32;12.77;;;11.57;;
6053;SDS011;3055;50.886;14.814;2023-09-19T00:24:59;12.80;;;11.17;;
6053;SDS011;3055;50.886;14.814;2023-09-19T00:27:27;12.43;;;11.00;;
6053;SDS011;3055;50.886;14.814;2023-09-19T00:29:54;11.77;;;10.47;;
6053;SDS011;3055;50.886;14.814;2023-09-19T00:32:23;14.47;;;10.60;;
6053;SDS011;3055;50.886;14.814;2023-09-19T00:34:57;12.13;;;10.93;;
6053;SDS011;3055;50.886;14.814;2023-09-19T00:37:24;11.67;;;10.13;;
6053;SDS011;3055;50.886;14.814;2023-09-19T00:39:51;10.40;;;9.47;;
6053;SDS011;3055;50.886;14.814;2023-09-19T00:42:18;9.73;;;8.87;;
6053;SDS011;3055;50.886;14.814;2023-09-19T00:44:46;9.57;;;8.63;;
6053;SDS011;3055;50.886;14.814;2023-09-19T00:47:16;8.43;;;7.63;;
6053;SDS011;3055;50.886;14.814;2023-09-19T00:49:44;9.50;;;8.63;;
6053;SDS011;3055;50.886;14.814;2023-09-19T00:52:15;10.53;;;9.53;;
6053;SDS011;3055;50.886;14.814;2023-09-19T00:54:44;9.20;;;8.07;;
6053;SDS011;3055;50.886;14.814;2023-09-19T00:57:12;9.33;;;7.83;;
6053;SDS011;3055;50.886;14.814;2023-09-19T00:59:40;7.83;;;7.03;;
6053;SDS011;3055;50.886;14.814;2023-09-19T01:02:08;8.80;;;7.90;;
6053;SDS011;3055;50.886;14.814;2023-09-19T01:04:35;9.30;;;8.40;;
6053;SDS011;3055;50.886;14.814;2023-09-19T01:07:05;8.83;;;8.00;;
6053;SDS011;3055;50.886;14.814;2023-09-19T01:09:34;8.77;;;7.97;;
6053;SDS011;3055;50.886;14.814;2023-09-19T01:12:02;8.50;;;7.80;;
6053;SDS011;3055;50.886;14.814;2023-09-19T01:14:34;9.60;;;8.10;;
6053;SDS011;3055;50.886;14.814;2023-09-19T01:17:09;8.07;;;7.27;;
6053;SDS011;3055;50.886;14.814;2023-09-19T01:19:58;8.33;;;7.53;;
6053;SDS011;3055;50.886;14.814;2023-09-19T01:22:41;8.47;;;7.77;;
6053;SDS011;3055;50.886;14.814;2023-09-19T01:28:43;7.87;;;7.27;;
6053;SDS011;3055;50.886;14.814;2023-09-19T01:31:22;7.83;;;7.03;;
6053;SDS011;3055;50.886;14.814;2023-09-19T01:33:57;7.47;;;6.73;;
6053;SDS011;3055;50.886;14.814;2023-09-19T01:36:27;7.27;;;5.77;;
6053;SDS011;3055;50.886;14.814;2023-09-19T01:38:55;8.40;;;5.70;;
6053;SDS011;3055;50.886;14.814;2023-09-19T01:41:26;6.97;;;5.20;;
6053;SDS011;3055;50.886;14.814;2023-09-19T01:43:59;5.67;;;4.83;;
6053;SDS011;3055;50.886;14.814;2023-09-19T01:46:33;4.97;;;4.43;;
6053;SDS011;3055;50.886;14.814;2023-09-19T01:49:04;4.67;;;3.60;;
6053;SDS011;3055;50.886;14.814;2023-09-19T01:51:45;5.00;;;3.80;;
6053;SDS011;3055;50.886;14.814;2023-09-19T01:54:18;4.00;;;3.57;;
6053;SDS011;3055;50.886;14.814;2023-09-19T01:56:54;6.67;;;3.47;;
6053;SDS011;3055;50.886;14.814;2023-09-19T01:59:31;4.37;;;3.20;;
6053;SDS011;3055;50.886;14.814;2023-09-19T02:02:06;3.33;;;3.03;;
6053;SDS011;3055;50.886;14.814;2023-09-19T02:04:35;4.27;;;2.97;;
6053;SDS011;3055;50.886;14.814;2023-09-19T02:07:02;4.83;;;3.33;;
6053;SDS011;3055;50.886;14.814;2023-09-19T02:09:33;3.80;;;3.30;;
6053;SDS011;3055;50.886;14.814;2023-09-19T02:12:03;4.03;;;3.40;;
6053;SDS011;3055;50.886;14.814;2023-09-19T02:14:31;3.87;;;3.13;;
6053;SDS011;3055;50.886;14.814;2023-09-19T02:16:58;4.30;;;3.90;;
6053;SDS011;3055;50.886;14.814;2023-09-19T02:19:27;6.80;;;3.90;;
6053;SDS011;3055;50.886;14.814;2023-09-19T02:21:55;5.93;;;3.63;;
6053;SDS011;3055;50.886;14.814;2023-09-19T02:24:22;4.83;;;3.90;;
6053;SDS011;3055;50.886;14.814;2023-09-19T02:26:52;4.97;;;4.10;;
6053;SDS011;3055;50.886;14.814;2023-09-19T02:29:19;5.53;;;4.17;;
6053;SDS011;3055;50.886;14.814;2023-09-19T02:31:47;4.80;;;4.40;;
6053;SDS011;3055;50.886;14.814;2023-09-19T02:34:14;5.93;;;4.73;;
6053;SDS011;3055;50.886;14.814;2023-09-19T02:36:44;6.13;;;4.90;;
6053;SDS011;3055;50.886;14.814;2023-09-19T02:39:12;5.87;;;5.33;;
6053;SDS011;3055;50.886;14.814;2023-09-19T02:41:39;5.67;;;5.10;;
6053;SDS011;3055;50.886;14.814;2023-09-19T02:44:06;6.30;;;5.80;;
6053;SDS011;3055;50.886;14.814;2023-09-19T02:46:34;7.77;;;5.73;;
6053;SDS011;3055;50.886;14.814;2023-09-19T02:49:02;7.23;;;6.53;;
6053;SDS011;3055;50.886;14.814;2023-09-19T02:51:31;6.60;;;6.00;;
6053;SDS011;3055;50.886;14.814;2023-09-19T02:54:00;7.37;;;6.10;;
6053;SDS011;3055;50.886;14.814;2023-09-19T02:56:28;7.60;;;6.80;;
6053;SDS011;3055;50.886;14.814;2023-09-19T02:58:57;7.97;;;6.63;;
6053;SDS011;3055;50.886;14.814;2023-09-19T03:01:25;7.63;;;6.90;;
6053;SDS011;3055;50.886;14.814;2023-09-19T03:03:53;6.90;;;6.30;;
6053;SDS011;3055;50.886;14.814;2023-09-19T03:06:20;7.13;;;6.53;;
6053;SDS011;3055;50.886;14.814;2023-09-19T03:08:49;7.43;;;6.73;;
6053;SDS011;3055;50.886;14.814;2023-09-19T03:11:33;9.63;;;6.90;;
6053;SDS011;3055;50.886;14.814;2023-09-19T03:14:00;6.87;;;6.23;;
6053;SDS011;3055;50.886;14.814;2023-09-19T03:16:27;7.20;;;6.60;;
6053;SDS011;3055;50.886;14.814;2023-09-19T03:18:55;8.37;;;7.60;;
6053;SDS011;3055;50.886;14.814;2023-09-19T03:21:23;8.57;;;7.67;;
6053;SDS011;3055;50.886;14.814;2023-09-19T03:23:59;8.23;;;7.53;;
6053;SDS011;3055;50.886;14.814;2023-09-19T03:26:27;7.73;;;7.03;;
6053;SDS011;3055;50.886;14.814;2023-09-19T03:28:56;7.20;;;6.50;;
6053;SDS011;3055;50.886;14.814;2023-09-19T03:31:23;8.10;;;7.10;;
6053;SDS011;3055;50.886;14.814;2023-09-19T03:33:50;7.07;;;6.30;;
6053;SDS011;3055;50.886;14.814;2023-09-19T03:36:17;7.70;;;6.83;;
6053;SDS011;3055;50.886;14.814;2023-09-19T03:38:44;6.63;;;6.00;;
6053;SDS011;3055;50.886;14.814;2023-09-19T03:41:11;6.73;;;6.03;;
6053;SDS011;3055;50.886;14.814;2023-09-19T03:43:42;7.83;;;6.10;;
6053;SDS011;3055;50.886;14.814;2023-09-19T03:46:10;6.53;;;5.93;;
6053;SDS011;3055;50.886;14.814;2023-09-19T03:48:38;7.17;;;6.47;;
6053;SDS011;3055;50.886;14.814;2023-09-19T03:51:05;7.37;;;6.67;;
6053;SDS011;3055;50.886;14.814;2023-09-19T03:53:32;7.50;;;6.90;;
6053;SDS011;3055;50.886;14.814;2023-09-19T03:55:59;7.27;;;6.57;;
6053;SDS011;3055;50.886;14.814;2023-09-19T03:58:26;7.40;;;6.67;;
6053;SDS011;3055;50.886;14.814;2023-09-19T04:00:54;6.67;;;6.00;;
6053;SDS011;3055;50.886;14.814;2023-09-19T04:03:23;7.90;;;7.20;;
6053;SDS011;3055;50.886;14.814;2023-09-19T04:05:59;7.77;;;6.87;;
6053;SDS011;3055;50.886;14.814;2023-09-19T04:08:27;7.20;;;6.50;;
6053;SDS011;3055;50.886;14.814;2023-09-19T04:10:54;7.23;;;6.63;;
6053;SDS011;3055;50.886;14.814;2023-09-19T04:13:21;8.53;;;7.63;;
6053;SDS011;3055;50.886;14.814;2023-09-19T04:15:49;7.43;;;6.73;;
6053;SDS011;3055;50.886;14.814;2023-09-19T04:18:16;7.87;;;7.13;;
6053;SDS011;3055;50.886;14.814;2023-09-19T04:20:48;7.90;;;7.20;;
6053;SDS011;3055;50.886;14.814;2023-09-19T04:23:15;7.60;;;6.87;;
6053;SDS011;3055;50.886;14.814;2023-09-19T04:25:43;7.73;;;7.03;;
6053;SDS011;3055;50.886;14.814;2023-09-19T04:28:10;8.47;;;7.67;;
6053;SDS011;3055;50.886;14.814;2023-09-19T04:30:37;8.07;;;7.27;;
6053;SDS011;3055;50.886;14.814;2023-09-19T04:33:05;8.67;;;7.67;;
6053;SDS011;3055;50.886;14.814;2023-09-19T04:35:33;7.57;;;6.87;;
6053;SDS011;3055;50.886;14.814;2023-09-19T04:38:01;7.70;;;6.73;;
6053;SDS011;3055;50.886;14.814;2023-09-19T04:40:31;6.73;;;6.13;;
6053;SDS011;3055;50.886;14.814;2023-09-19T04:42:59;7.33;;;6.73;;
6053;SDS011;3055;50.886;14.814;2023-09-19T04:45:26;6.77;;;6.23;;
6053;SDS011;3055;50.886;14.814;2023-09-19T04:47:54;7.40;;;6.80;;
6053;SDS011;3055;50.886;14.814;2023-09-19T04:50:21;6.80;;;6.23;;
6053;SDS011;3055;50.886;14.814;2023-09-19T04:52:50;7.13;;;6.53;;
6053;SDS011;3055;50.886;14.814;2023-09-19T04:55:18;6.50;;;6.00;;
6053;SDS011;3055;50.886;14.814;2023-09-19T04:57:46;8.37;;;7.33;;
6053;SDS011;3055;50.886;14.814;2023-09-19T05:00:14;7.00;;;6.40;;
6053;SDS011;3055;50.886;14.814;2023-09-19T05:02:42;7.37;;;6.67;;
6053;SDS011;3055;50.886;14.814;2023-09-19T05:05:09;7.27;;;6.67;;
6053;SDS011;3055;50.886;14.814;2023-09-19T05:07:38;7.20;;;6.50;;
6053;SDS011;3055;50.886;14.814;2023-09-19T05:10:07;7.37;;;6.57;;
6053;SDS011;3055;50.886;14.814;2023-09-19T05:12:36;8.10;;;6.53;;
6053;SDS011;3055;50.886;14.814;2023-09-19T05:15:03;7.87;;;7.17;;
6053;SDS011;3055;50.886;14.814;2023-09-19T05:17:32;7.83;;;6.80;;
6053;SDS011;3055;50.886;14.814;2023-09-19T05:19:59;7.57;;;6.97;;
6053;SDS011;3055;50.886;14.814;2023-09-19T05:22:31;7.40;;;6.70;;
6053;SDS011;3055;50.886;14.814;2023-09-19T05:24:58;7.40;;;6.80;;
6053;SDS011;3055;50.886;14.814;2023-09-19T05:27:25;7.13;;;6.37;;
6053;SDS011;3055;50.886;14.814;2023-09-19T05:29:53;7.33;;;6.63;;
6053;SDS011;3055;50.886;14.814;2023-09-19T05:32:21;6.87;;;6.37;;
6053;SDS011;3055;50.886;14.814;2023-09-19T05:34:48;8.63;;;6.57;;
6053;SDS011;3055;50.886;14.814;2023-09-19T05:37:18;7.53;;;6.83;;
6053;SDS011;3055;50.886;14.814;2023-09-19T05:39:45;7.63;;;6.67;;
6053;SDS011;3055;50.886;14.814;2023-09-19T05:42:12;7.67;;;6.90;;
6053;SDS011;3055;50.886;14.814;2023-09-19T05:44:39;7.73;;;7.03;;
6053;SDS011;3055;50.886;14.814;2023-09-19T05:47:07;8.63;;;7.70;;
6053;SDS011;3055;50.886;14.814;2023-09-19T05:49:34;8.17;;;7.37;;
6053;SDS011;3055;50.886;14.814;2023-09-19T05:52:03;7.40;;;6.70;;
6053;SDS011;3055;50.886;14.814;2023-09-19T05:54:31;7.47;;;6.77;;
6053;SDS011;3055;50.886;14.814;2023-09-19T05:56:59;7.97;;;7.27;;
6053;SDS011;3055;50.886;14.814;2023-09-19T05:59:26;7.70;;;7.00;;
6053;SDS011;3055;50.886;14.814;2023-09-19T06:01:54;7.40;;;6.80;;
6053;SDS011;3055;50.886;14.814;2023-09-19T06:04:22;8.07;;;7.27;;
6053;SDS011;3055;50.886;14.814;2023-09-19T06:06:50;8.77;;;7.90;;
6053;SDS011;3055;50.886;14.814;2023-09-19T06:09:17;9.13;;;7.20;;
6053;SDS011;3055;50.886;14.814;2023-09-19T06:11:45;7.83;;;6.97;;
6053;SDS011;3055;50.886;14.814;2023-09-19T06:14:12;8.10;;;7.40;;
6053;SDS011;3055;50.886;14.814;2023-09-19T06:16:39;8.23;;;7.10;;
6053;SDS011;3055;50.886;14.814;2023-09-19T06:19:08;8.33;;;7.13;;
6053;SDS011;3055;50.886;14.814;2023-09-19T06:21:36;7.57;;;6.90;;
6053;SDS011;3055;50.886;14.814;2023-09-19T06:24:04;6.93;;;6.33;;
6053;SDS011;3055;50.886;14.814;2023-09-19T06:26:32;7.47;;;6.77;;
6053;SDS011;3055;50.886;14.814;2023-09-19T06:28:59;7.80;;;6.57;;
6053;SDS011;3055;50.886;14.814;2023-09-19T06:31:26;6.87;;;6.27;;
6053;SDS011;3055;50.886;14.814;2023-09-19T06:33:53;9.80;;;6.30;;
6053;SDS011;3055;50.886;14.814;2023-09-19T06:36:20;8.37;;;6.17;;
6053;SDS011;3055;50.886;14.814;2023-09-19T06:38:48;7.17;;;6.60;;
6053;SDS011;3055;50.886;14.814;2023-09-19T06:41:17;7.33;;;6.00;;
6053;SDS011;3055;50.886;14.814;2023-09-19T06:43:44;10.90;;;5.83;;
6053;SDS011;3055;50.886;14.814;2023-09-19T06:46:11;6.70;;;6.17;;
6053;SDS011;3055;50.886;14.814;2023-09-19T06:48:39;6.27;;;5.67;;
6053;SDS011;3055;50.886;14.814;2023-09-19T06:51:06;7.33;;;5.77;;
6053;SDS011;3055;50.886;14.814;2023-09-19T06:53:35;6.10;;;5.53;;
6053;SDS011;3055;50.886;14.814;2023-09-19T06:56:03;6.83;;;6.07;;
6053;SDS011;3055;50.886;14.814;2023-09-19T06:58:31;5.63;;;4.93;;
6053;SDS011;3055;50.886;14.814;2023-09-19T07:00:58;8.10;;;5.40;;
6053;SDS011;3055;50.886;14.814;2023-09-19T07:03:26;7.73;;;7.07;;
6053;SDS011;3055;50.886;14.814;2023-09-19T07:05:53;6.40;;;5.90;;
6053;SDS011;3055;50.886;14.814;2023-09-19T07:08:21;6.57;;;5.97;;
6053;SDS011;3055;50.886;14.814;2023-09-19T07:10:48;5.93;;;5.53;;
6053;SDS011;3055;50.886;14.814;2023-09-19T07:13:19;5.60;;;5.20;;
6053;SDS011;3055;50.886;14.814;2023-09-19T07:15:46;5.30;;;4.80;;
6053;SDS011;3055;50.886;14.814;2023-09-19T07:18:15;7.80;;;4.80;;
6053;SDS011;3055;50.886;14.814;2023-09-19T07:20:43;4.33;;;3.93;;
6053;SDS011;3055;50.886;14.814;2023-09-19T07:23:14;3.23;;;2.93;;
6053;SDS011;3055;50.886;14.814;2023-09-19T07:25:43;4.03;;;3.00;;
6053;SDS011;3055;50.886;14.814;2023-09-19T07:28:11;3.33;;;2.93;;
6053;SDS011;3055;50.886;14.814;2023-09-19T07:30:40;3.17;;;2.40;;
6053;SDS011;3055;50.886;14.814;2023-09-19T07:33:07;2.90;;;2.70;;
6053;SDS011;3055;50.886;14.814;2023-09-19T07:35:36;2.97;;;2.33;;
6053;SDS011;3055;50.886;14.814;2023-09-19T07:38:06;2.40;;;2.20;;
6053;SDS011;3055;50.886;14.814;2023-09-19T07:40:33;3.03;;;2.17;;
6053;SDS011;3055;50.886;14.814;2023-09-19T07:43:01;2.50;;;2.30;;
6053;SDS011;3055;50.886;14.814;2023-09-19T07:45:30;3.30;;;2.07;;
6053;SDS011;3055;50.886;14.814;2023-09-19T07:47:58;3.53;;;2.10;;
6053;SDS011;3055;50.886;14.814;2023-09-19T07:50:29;3.47;;;2.40;;
6053;SDS011;3055;50.886;14.814;2023-09-19T07:52:56;3.00;;;1.83;;
6053;SDS011;3055;50.886;14.814;2023-09-19T07:55:24;2.50;;;2.30;;
6053;SDS011;3055;50.886;14.814;2023-09-19T07:57:51;4.50;;;1.80;;
6053;SDS011;3055;50.886;14.814;2023-09-19T08:00:19;3.10;;;1.80;;
6053;SDS011;3055;50.886;14.814;2023-09-19T08:02:46;2.87;;;2.00;;
6053;SDS011;3055;50.886;14.814;2023-09-19T08:05:15;1.90;;;1.70;;
6053;SDS011;3055;50.886;14.814;2023-09-19T08:07:43;11.10;;;2.17;;
6053;SDS011;3055;50.886;14.814;2023-09-19T08:10:13;3.13;;;1.50;;
6053;SDS011;3055;50.886;14.814;2023-09-19T08:12:41;1.80;;;1.57;;
6053;SDS011;3055;50.886;14.814;2023-09-19T08:15:11;3.30;;;1.60;;
6053;SDS011;3055;50.886;14.814;2023-09-19T08:17:39;2.53;;;1.30;;
6053;SDS011;3055;50.886;14.814;2023-09-19T08:20:07;1.87;;;1.63;;
6053;SDS011;3055;50.886;14.814;2023-09-19T08:22:42;3.33;;;1.90;;
6053;SDS011;3055;50.886;14.814;2023-09-19T08:25:18;3.37;;;1.60;;
6053;SDS011;3055;50.886;14.814;2023-09-19T08:27:54;2.00;;;1.43;;
6053;SDS011;3055;50.886;14.814;2023-09-19T08:30:23;1.93;;;1.30;;
6053;SDS011;3055;50.886;14.814;2023-09-19T08:32:56;2.57;;;1.40;;
6053;SDS011;3055;50.886;14.814;2023-09-19T08:35:24;2.00;;;1.70;;
6053;SDS011;3055;50.886;14.814;2023-09-19T08:37:52;2.47;;;1.47;;
6053;SDS011;3055;50.886;14.814;2023-09-19T08:40:20;2.33;;;1.33;;
6053;SDS011;3055;50.886;14.814;2023-09-19T08:42:48;2.13;;;1.50;;
6053;SDS011;3055;50.886;14.814;2023-09-19T08:45:16;2.50;;;1.47;;
6053;SDS011;3055;50.886;14.814;2023-09-19T08:47:45;2.60;;;1.30;;
6053;SDS011;3055;50.886;14.814;2023-09-19T08:50:17;3.53;;;1.50;;
6053;SDS011;3055;50.886;14.814;2023-09-19T08:52:50;1.43;;;1.20;;
6053;SDS011;3055;50.886;14.814;2023-09-19T08:55:23;2.97;;;1.60;;
6053;SDS011;3055;50.886;14.814;2023-09-19T08:57:56;1.47;;;1.20;;
6053;SDS011;3055;50.886;14.814;2023-09-19T09:00:27;1.60;;;1.33;;
6053;SDS011;3055;50.886;14.814;2023-09-19T09:02:55;2.23;;;1.27;;
6053;SDS011;3055;50.886;14.814;2023-09-19T09:05:24;1.50;;;1.40;;
6053;SDS011;3055;50.886;14.814;2023-09-19T09:07:53;2.50;;;1.40;;
6053;SDS011;3055;50.886;14.814;2023-09-19T09:10:21;1.53;;;1.07;;
6053;SDS011;3055;50.886;14.814;2023-09-19T09:12:49;2.73;;;1.50;;
6053;SDS011;3055;50.886;14.814;2023-09-19T09:15:18;1.70;;;1.50;;
6053;SDS011;3055;50.886;14.814;2023-09-19T09:17:47;2.03;;;1.30;;
6053;SDS011;3055;50.886;14.814;2023-09-19T09:20:15;1.27;;;1.07;;
6053;SDS011;3055;50.886;14.814;2023-09-19T09:22:55;1.20;;;1.10;;
6053;SDS011;3055;50.886;14.814;2023-09-19T09:25:27;2.43;;;1.53;;
6053;SDS011;3055;50.886;14.814;2023-09-19T09:28:13;2.83;;;1.40;;
6053;SDS011;3055;50.886;14.814;2023-09-19T09:30:46;2.77;;;1.40;;
6053;SDS011;3055;50.886;14.814;2023-09-19T09:33:13;1.27;;;1.17;;
6053;SDS011;3055;50.886;14.814;2023-09-19T09:35:48;1.90;;;1.20;;
6053;SDS011;3055;50.886;14.814;2023-09-19T09:38:18;1.87;;;1.17;;
6053;SDS011;3055;50.886;14.814;2023-09-19T09:40:46;4.23;;;1.67;;
6053;SDS011;3055;50.886;14.814;2023-09-19T09:43:25;3.10;;;1.30;;
6053;SDS011;3055;50.886;14.814;2023-09-19T09:49:00;2.80;;;1.57;;
6053;SDS011;3055;50.886;14.814;2023-09-19T09:51:42;1.50;;;1.20;;
6053;SDS011;3055;50.886;14.814;2023-09-19T09:54:14;5.43;;;1.33;;
6053;SDS011;3055;50.886;14.814;2023-09-19T09:59:43;1.87;;;1.50;;
6053;SDS011;3055;50.886;14.814;2023-09-19T10:02:17;2.03;;;1.50;;
6053;SDS011;3055;50.886;14.814;2023-09-19T10:04:49;3.80;;;1.30;;
6053;SDS011;3055;50.886;14.814;2023-09-19T10:07:38;3.73;;;1.97;;
6053;SDS011;3055;50.886;14.814;2023-09-19T10:13:19;1.90;;;1.20;;
6053;SDS011;3055;50.886;14.814;2023-09-19T10:15:49;2.00;;;1.40;;
6053;SDS011;3055;50.886;14.814;2023-09-19T10:18:20;1.70;;;1.53;;
6053;SDS011;3055;50.886;14.814;2023-09-19T10:20:48;1.30;;;1.20;;
6053;SDS011;3055;50.886;14.814;2023-09-19T10:23:16;3.53;;;1.20;;
6053;SDS011;3055;50.886;14.814;2023-09-19T10:25:49;3.53;;;1.47;;
6053;SDS011;3055;50.886;14.814;2023-09-19T10:28:17;4.80;;;1.83;;
6053;SDS011;3055;50.886;14.814;2023-09-19T10:30:47;1.97;;;1.20;;
6053;SDS011;3055;50.886;14.814;2023-09-19T10:33:16;1.80;;;1.27;;
6053;SDS011;3055;50.886;14.814;2023-09-19T10:35:45;1.50;;;1.30;;
6053;SDS011;3055;50.886;14.814;2023-09-19T10:38:13;1.43;;;1.10;;
6053;SDS011;3055;50.886;14.814;2023-09-19T10:40:44;2.00;;;1.40;;
6053;SDS011;3055;50.886;14.814;2023-09-19T10:43:17;2.50;;;1.50;;
6053;SDS011;3055;50.886;14.814;2023-09-19T10:45:46;2.43;;;1.47;;
6053;SDS011;3055;50.886;14.814;2023-09-19T10:48:14;1.50;;;1.40;;
6053;SDS011;3055;50.886;14.814;2023-09-19T10:50:46;1.60;;;1.20;;
6053;SDS011;3055;50.886;14.814;2023-09-19T10:53:17;2.80;;;1.70;;
6053;SDS011;3055;50.886;14.814;2023-09-19T10:55:48;1.20;;;1.10;;
6053;SDS011;3055;50.886;14.814;2023-09-19T10:58:30;1.40;;;1.30;;
6053;SDS011;3055;50.886;14.814;2023-09-19T11:00:59;1.73;;;1.47;;
6053;SDS011;3055;50.886;14.814;2023-09-19T11:03:32;1.50;;;1.30;;
6053;SDS011;3055;50.886;14.814;2023-09-19T11:06:03;2.60;;;1.27;;
6053;SDS011;3055;50.886;14.814;2023-09-19T11:08:58;2.60;;;1.80;;
6053;SDS011;3055;50.886;14.814;2023-09-19T11:11:43;3.63;;;1.40;;
6053;SDS011;3055;50.886;14.814;2023-09-19T11:14:32;1.23;;;1.13;;
6053;SDS011;3055;50.886;14.814;2023-09-19T11:17:30;3.57;;;1.30;;
6053;SDS011;3055;50.886;14.814;2023-09-19T11:23:21;1.27;;;1.17;;
6053;SDS011;3055;50.886;14.814;2023-09-19T11:25:49;2.33;;;1.33;;
6053;SDS011;3055;50.886;14.814;2023-09-19T11:28:31;4.43;;;1.30;;
6053;SDS011;3055;50.886;14.814;2023-09-19T11:40:27;3.23;;;1.43;;
6053;SDS011;3055;50.886;14.814;2023-09-19T11:42:55;1.80;;;1.17;;
6053;SDS011;3055;50.886;14.814;2023-09-19T11:48:30;2.57;;;1.17;;
6053;SDS011;3055;50.886;14.814;2023-09-19T11:51:01;3.90;;;1.27;;
6053;SDS011;3055;50.886;14.814;2023-09-19T11:53:47;3.07;;;0.90;;
6053;SDS011;3055;50.886;14.814;2023-09-19T11:56:15;1.10;;;1.00;;
6053;SDS011;3055;50.886;14.814;2023-09-19T11:58:44;1.70;;;0.90;;
6053;SDS011;3055;50.886;14.814;2023-09-19T12:01:14;1.70;;;1.10;;
6053;SDS011;3055;50.886;14.814;2023-09-19T12:03:47;1.17;;;1.07;;
6053;SDS011;3055;50.886;14.814;2023-09-19T12:06:25;2.00;;;1.00;;
6053;SDS011;3055;50.886;14.814;2023-09-19T12:08:54;3.30;;;1.30;;
6053;SDS011;3055;50.886;14.814;2023-09-19T12:11:23;1.50;;;1.40;;
6053;SDS011;3055;50.886;14.814;2023-09-19T12:13:52;2.70;;;1.30;;
6053;SDS011;3055;50.886;14.814;2023-09-19T12:16:24;1.10;;;1.00;;
6053;SDS011;3055;50.886;14.814;2023-09-19T12:18:51;1.70;;;1.30;;
6053;SDS011;3055;50.886;14.814;2023-09-19T12:21:22;1.80;;;1.10;;
6053;SDS011;3055;50.886;14.814;2023-09-19T12:23:59;1.30;;;1.20;;
6053;SDS011;3055;50.886;14.814;2023-09-19T12:26:37;1.83;;;1.47;;
6053;SDS011;3055;50.886;14.814;2023-09-19T12:29:10;1.13;;;1.00;;
6053;SDS011;3055;50.886;14.814;2023-09-19T12:31:54;1.47;;;1.27;;
6053;SDS011;3055;50.886;14.814;2023-09-19T12:34:23;2.27;;;1.33;;
6053;SDS011;3055;50.886;14.814;2023-09-19T12:39:46;2.23;;;1.20;;
6053;SDS011;3055;50.886;14.814;2023-09-19T12:42:16;4.10;;;1.33;;
6053;SDS011;3055;50.886;14.814;2023-09-19T12:44:45;2.40;;;1.40;;
6053;SDS011;3055;50.886;14.814;2023-09-19T12:47:16;1.40;;;1.27;;
6053;SDS011;3055;50.886;14.814;2023-09-19T12:52:40;1.67;;;1.20;;
6053;SDS011;3055;50.886;14.814;2023-09-19T12:55:18;1.63;;;1.20;;
6053;SDS011;3055;50.886;14.814;2023-09-19T12:58:01;1.30;;;1.20;;
6053;SDS011;3055;50.886;14.814;2023-09-19T13:00:36;1.47;;;1.37;;
6053;SDS011;3055;50.886;14.814;2023-09-19T13:03:14;1.37;;;0.90;;
6053;SDS011;3055;50.886;14.814;2023-09-19T13:05:48;2.23;;;0.93;;
6053;SDS011;3055;50.886;14.814;2023-09-19T13:08:23;3.10;;;1.53;;
6053;SDS011;3055;50.886;14.814;2023-09-19T13:11:02;8.00;;;1.37;;
6053;SDS011;3055;50.886;14.814;2023-09-19T13:13:33;1.10;;;1.00;;
6053;SDS011;3055;50.886;14.814;2023-09-19T13:16:02;1.90;;;1.23;;
6053;SDS011;3055;50.886;14.814;2023-09-19T13:18:41;2.33;;;1.33;;
6053;SDS011;3055;50.886;14.814;2023-09-19T13:21:10;1.50;;;1.20;;
6053;SDS011;3055;50.886;14.814;2023-09-19T13:23:42;1.27;;;1.00;;
6053;SDS011;3055;50.886;14.814;2023-09-19T13:26:09;0.90;;;0.80;;
6053;SDS011;3055;50.886;14.814;2023-09-19T13:28:37;1.10;;;1.00;;
6053;SDS011;3055;50.886;14.814;2023-09-19T13:31:04;1.17;;;1.00;;
6053;SDS011;3055;50.886;14.814;2023-09-19T13:33:33;1.40;;;1.30;;
6053;SDS011;3055;50.886;14.814;2023-09-19T13:36:01;4.93;;;1.30;;
6053;SDS011;3055;50.886;14.814;2023-09-19T13:38:30;1.60;;;1.27;;
6053;SDS011;3055;50.886;14.814;2023-09-19T13:40:58;2.60;;;1.37;;
6053;SDS011;3055;50.886;14.814;2023-09-19T13:43:26;1.33;;;1.23;;
6053;SDS011;3055;50.886;14.814;2023-09-19T13:45:54;1.20;;;0.90;;
6053;SDS011;3055;50.886;14.814;2023-09-19T13:48:22;1.20;;;1.10;;
6053;SDS011;3055;50.886;14.814;2023-09-19T13:50:49;2.60;;;1.17;;
6053;SDS011;3055;50.886;14.814;2023-09-19T13:53:16;1.37;;;1.20;;
6053;SDS011;3055;50.886;14.814;2023-09-19T13:55:44;1.83;;;1.10;;
6053;SDS011;3055;50.886;14.814;2023-09-19T13:58:13;1.50;;;1.03;;
6053;SDS011;3055;50.886;14.814;2023-09-19T14:00:40;3.67;;;1.40;;
6053;SDS011;3055;50.886;14.814;2023-09-19T14:03:08;1.43;;;1.20;;
6053;SDS011;3055;50.886;14.814;2023-09-19T14:05:35;1.87;;;1.30;;
6053;SDS011;3055;50.886;14.814;2023-09-19T14:08:03;1.97;;;1.27;;
6053;SDS011;3055;50.886;14.814;2023-09-19T14:10:31;3.60;;;1.17;;
6053;SDS011;3055;50.886;14.814;2023-09-19T14:12:58;1.80;;;1.23;;
6053;SDS011;3055;50.886;14.814;2023-09-19T14:15:27;1.20;;;1.10;;
6053;SDS011;3055;50.886;14.814;2023-09-19T14:17:56;2.57;;;1.20;;
6053;SDS011;3055;50.886;14.814;2023-09-19T14:20:24;2.17;;;1.00;;
6053;SDS011;3055;50.886;14.814;2023-09-19T14:22:52;1.37;;;1.27;;
6053;SDS011;3055;50.886;14.814;2023-09-19T14:25:20;1.53;;;1.43;;
6053;SDS011;3055;50.886;14.814;2023-09-19T14:27:47;2.23;;;1.30;;
6053;SDS011;3055;50.886;14.814;2023-09-19T14:30:14;1.43;;;1.10;;
6053;SDS011;3055;50.886;14.814;2023-09-19T14:32:43;1.10;;;0.90;;
6053;SDS011;3055;50.886;14.814;2023-09-19T14:35:10;7.10;;;1.80;;
6053;SDS011;3055;50.886;14.814;2023-09-19T14:37:40;1.70;;;1.30;;
6053;SDS011;3055;50.886;14.814;2023-09-19T14:40:08;1.80;;;1.10;;
6053;SDS011;3055;50.886;14.814;2023-09-19T14:42:38;1.30;;;1.20;;
6053;SDS011;3055;50.886;14.814;2023-09-19T14:45:06;2.10;;;1.13;;
6053;SDS011;3055;50.886;14.814;2023-09-19T14:47:34;2.30;;;1.33;;
6053;SDS011;3055;50.886;14.814;2023-09-19T14:50:04;2.27;;;1.20;;
6053;SDS011;3055;50.886;14.814;2023-09-19T14:52:32;2.67;;;1.07;;
6053;SDS011;3055;50.886;14.814;2023-09-19T14:55:01;1.33;;;1.13;;
6053;SDS011;3055;50.886;14.814;2023-09-19T14:57:30;2.90;;;1.30;;
6053;SDS011;3055;50.886;14.814;2023-09-19T14:59:57;1.67;;;1.20;;
6053;SDS011;3055;50.886;14.814;2023-09-19T15:02:25;1.13;;;0.93;;
6053;SDS011;3055;50.886;14.814;2023-09-19T15:04:52;2.73;;;1.23;;
6053;SDS011;3055;50.886;14.814;2023-09-19T15:07:21;1.10;;;1.00;;
6053;SDS011;3055;50.886;14.814;2023-09-19T15:09:48;2.03;;;1.20;;
6053;SDS011;3055;50.886;14.814;2023-09-19T15:12:15;1.23;;;1.10;;
6053;SDS011;3055;50.886;14.814;2023-09-19T15:14:42;1.77;;;1.10;;
6053;SDS011;3055;50.886;14.814;2023-09-19T15:17:09;1.60;;;1.30;;
6053;SDS011;3055;50.886;14.814;2023-09-19T15:19:36;1.30;;;1.20;;
6053;SDS011;3055;50.886;14.814;2023-09-19T15:22:04;1.83;;;1.37;;
6053;SDS011;3055;50.886;14.814;2023-09-19T15:24:33;2.57;;;1.30;;
6053;SDS011;3055;50.886;14.814;2023-09-19T15:27:00;3.03;;;1.20;;
6053;SDS011;3055;50.886;14.814;2023-09-19T15:29:28;1.03;;;0.93;;
6053;SDS011;3055;50.886;14.814;2023-09-19T15:31:55;2.60;;;1.10;;
6053;SDS011;3055;50.886;14.814;2023-09-19T15:34:27;1.40;;;1.13;;
6053;SDS011;3055;50.886;14.814;2023-09-19T15:36:55;1.70;;;1.20;;
6053;SDS011;3055;50.886;14.814;2023-09-19T15:39:22;2.13;;;1.30;;
6053;SDS011;3055;50.886;14.814;2023-09-19T15:41:50;1.43;;;1.33;;
6053;SDS011;3055;50.886;14.814;2023-09-19T15:44:18;1.47;;;1.33;;
6053;SDS011;3055;50.886;14.814;2023-09-19T15:46:46;1.50;;;1.27;;
6053;SDS011;3055;50.886;14.814;2023-09-19T15:49:13;1.50;;;1.40;;